sensor_id;sensor_type;location;lat;lon;timestamp;P1;durP1;ratioP1;P2;durP2;ratioP2
1839;SDS011;920;48.944;9.148;2023-04-03T00:00:39;3.10;;;2.33;;
1839;SDS011;920;48.944;9.148;2023-04-03T00:03:06;2.83;;;2.10;;
1839;SDS011;920;48.944;9.148;2023-04-03T00:05:33;2.90;;;2.23;;
1839;SDS011;920;48.944;9.148;2023-04-03T00:08:00;2.93;;;2.00;;
1839;SDS011;920;48.944;9.148;2023-04-03T00:10:29;2.60;;;2.00;;
1839;SDS011;920;48.944;9.148;2023-04-03T00:12:56;5.30;;;2.37;;
1839;SDS011;920;48.944;9.148;2023-04-03T00:15:25;2.60;;;1.97;;
1839;SDS011;920;48.944;9.148;2023-04-03T00:17:52;2.80;;;2.10;;
1839;SDS011;920;48.944;9.148;2023-04-03T00:20:19;3.43;;;2.00;;
1839;SDS011;920;48.944;9.148;2023-04-03T00:22:46;3.13;;;2.27;;
1839;SDS011;920;48.944;9.148;2023-04-03T00:25:13;2.90;;;2.03;;
1839;SDS011;920;48.944;9.148;2023-04-03T00:27:40;3.50;;;2.60;;
1839;SDS011;920;48.944;9.148;2023-04-03T00:30:08;3.10;;;1.90;;
1839;SDS011;920;48.944;9.148;2023-04-03T00:32:37;2.37;;;2.00;;
1839;SDS011;920;48.944;9.148;2023-04-03T00:35:05;3.77;;;2.00;;
1839;SDS011;920;48.944;9.148;2023-04-03T00:37:32;3.47;;;2.50;;
1839;SDS011;920;48.944;9.148;2023-04-03T00:39:59;2.70;;;2.00;;
1839;SDS011;920;48.944;9.148;2023-04-03T00:42:26;5.73;;;2.50;;
1839;SDS011;920;48.944;9.148;2023-04-03T00:47:52;3.17;;;1.90;;
1839;SDS011;920;48.944;9.148;2023-04-03T00:50:18;3.40;;;2.20;;
1839;SDS011;920;48.944;9.148;2023-04-03T00:52:45;3.37;;;2.40;;
1839;SDS011;920;48.944;9.148;2023-04-03T00:55:14;2.90;;;2.30;;
1839;SDS011;920;48.944;9.148;2023-04-03T00:57:41;3.20;;;2.10;;
1839;SDS011;920;48.944;9.148;2023-04-03T01:00:10;3.17;;;2.60;;
1839;SDS011;920;48.944;9.148;2023-04-03T01:02:38;2.73;;;2.00;;
1839;SDS011;920;48.944;9.148;2023-04-03T01:05:08;3.80;;;2.50;;
1839;SDS011;920;48.944;9.148;2023-04-03T01:07:36;2.83;;;2.00;;
1839;SDS011;920;48.944;9.148;2023-04-03T01:10:04;3.00;;;2.00;;
1839;SDS011;920;48.944;9.148;2023-04-03T01:12:33;3.50;;;1.90;;
1839;SDS011;920;48.944;9.148;2023-04-03T01:15:02;3.70;;;2.30;;
1839;SDS011;920;48.944;9.148;2023-04-03T01:17:31;4.43;;;1.90;;
1839;SDS011;920;48.944;9.148;2023-04-03T01:20:13;3.37;;;2.10;;
1839;SDS011;920;48.944;9.148;2023-04-03T01:22:54;3.60;;;2.33;;
1839;SDS011;920;48.944;9.148;2023-04-03T01:25:23;2.97;;;2.00;;
1839;SDS011;920;48.944;9.148;2023-04-03T01:27:50;3.17;;;2.00;;
1839;SDS011;920;48.944;9.148;2023-04-03T01:30:18;3.50;;;2.20;;
1839;SDS011;920;48.944;9.148;2023-04-03T01:32:47;2.67;;;2.10;;
1839;SDS011;920;48.944;9.148;2023-04-03T01:35:14;2.20;;;1.70;;
1839;SDS011;920;48.944;9.148;2023-04-03T01:37:41;2.87;;;1.90;;
1839;SDS011;920;48.944;9.148;2023-04-03T01:40:08;3.07;;;1.93;;
1839;SDS011;920;48.944;9.148;2023-04-03T01:42:35;2.77;;;2.17;;
1839;SDS011;920;48.944;9.148;2023-04-03T01:45:02;3.20;;;2.20;;
1839;SDS011;920;48.944;9.148;2023-04-03T01:47:30;3.57;;;2.20;;
1839;SDS011;920;48.944;9.148;2023-04-03T01:49:58;2.97;;;2.30;;
1839;SDS011;920;48.944;9.148;2023-04-03T01:52:25;3.53;;;2.70;;
1839;SDS011;920;48.944;9.148;2023-04-03T01:54:52;3.83;;;2.27;;
1839;SDS011;920;48.944;9.148;2023-04-03T01:57:18;3.60;;;2.27;;
1839;SDS011;920;48.944;9.148;2023-04-03T01:59:45;3.80;;;2.33;;
1839;SDS011;920;48.944;9.148;2023-04-03T02:02:12;3.23;;;1.83;;
1839;SDS011;920;48.944;9.148;2023-04-03T02:04:39;4.13;;;2.30;;
1839;SDS011;920;48.944;9.148;2023-04-03T02:07:07;3.13;;;2.30;;
1839;SDS011;920;48.944;9.148;2023-04-03T02:09:34;3.03;;;2.20;;
1839;SDS011;920;48.944;9.148;2023-04-03T02:12:01;2.87;;;2.00;;
1839;SDS011;920;48.944;9.148;2023-04-03T02:14:29;3.30;;;2.30;;
1839;SDS011;920;48.944;9.148;2023-04-03T02:16:56;2.73;;;2.20;;
1839;SDS011;920;48.944;9.148;2023-04-03T02:19:23;2.80;;;2.37;;
1839;SDS011;920;48.944;9.148;2023-04-03T02:21:49;3.20;;;2.33;;
1839;SDS011;920;48.944;9.148;2023-04-03T02:24:17;2.33;;;1.90;;
1839;SDS011;920;48.944;9.148;2023-04-03T02:26:44;3.47;;;2.60;;
1839;SDS011;920;48.944;9.148;2023-04-03T02:29:11;3.20;;;2.20;;
1839;SDS011;920;48.944;9.148;2023-04-03T02:31:38;3.00;;;2.10;;
1839;SDS011;920;48.944;9.148;2023-04-03T02:34:04;2.90;;;2.27;;
1839;SDS011;920;48.944;9.148;2023-04-03T02:36:33;3.70;;;2.30;;
1839;SDS011;920;48.944;9.148;2023-04-03T02:39:04;3.80;;;2.30;;
1839;SDS011;920;48.944;9.148;2023-04-03T02:41:32;3.20;;;2.30;;
1839;SDS011;920;48.944;9.148;2023-04-03T02:44:01;3.10;;;2.30;;
1839;SDS011;920;48.944;9.148;2023-04-03T02:46:28;3.90;;;2.40;;
1839;SDS011;920;48.944;9.148;2023-04-03T02:48:55;3.30;;;2.23;;
1839;SDS011;920;48.944;9.148;2023-04-03T02:51:22;2.60;;;1.93;;
1839;SDS011;920;48.944;9.148;2023-04-03T02:53:49;3.80;;;2.33;;
1839;SDS011;920;48.944;9.148;2023-04-03T02:56:20;3.70;;;2.30;;
1839;SDS011;920;48.944;9.148;2023-04-03T02:58:48;3.70;;;2.37;;
1839;SDS011;920;48.944;9.148;2023-04-03T03:01:16;2.47;;;2.10;;
1839;SDS011;920;48.944;9.148;2023-04-03T03:03:43;3.47;;;2.10;;
1839;SDS011;920;48.944;9.148;2023-04-03T03:06:11;3.20;;;2.10;;
1839;SDS011;920;48.944;9.148;2023-04-03T03:08:40;2.93;;;2.10;;
1839;SDS011;920;48.944;9.148;2023-04-03T03:11:07;5.13;;;2.10;;
1839;SDS011;920;48.944;9.148;2023-04-03T03:13:33;2.83;;;1.97;;
1839;SDS011;920;48.944;9.148;2023-04-03T03:16:02;2.77;;;2.17;;
1839;SDS011;920;48.944;9.148;2023-04-03T03:18:29;3.07;;;2.33;;
1839;SDS011;920;48.944;9.148;2023-04-03T03:20:57;5.13;;;2.10;;
1839;SDS011;920;48.944;9.148;2023-04-03T03:23:25;3.83;;;2.60;;
1839;SDS011;920;48.944;9.148;2023-04-03T03:25:54;4.30;;;2.57;;
1839;SDS011;920;48.944;9.148;2023-04-03T03:28:21;2.60;;;2.10;;
1839;SDS011;920;48.944;9.148;2023-04-03T03:30:48;3.93;;;2.20;;
1839;SDS011;920;48.944;9.148;2023-04-03T03:33:18;5.50;;;2.17;;
1839;SDS011;920;48.944;9.148;2023-04-03T03:35:45;3.23;;;1.97;;
1839;SDS011;920;48.944;9.148;2023-04-03T03:38:12;5.70;;;2.10;;
1839;SDS011;920;48.944;9.148;2023-04-03T03:40:39;3.63;;;2.40;;
1839;SDS011;920;48.944;9.148;2023-04-03T03:43:06;3.07;;;2.20;;
1839;SDS011;920;48.944;9.148;2023-04-03T03:45:33;3.40;;;2.30;;
1839;SDS011;920;48.944;9.148;2023-04-03T03:48:00;3.60;;;2.23;;
1839;SDS011;920;48.944;9.148;2023-04-03T03:50:29;3.90;;;2.17;;
1839;SDS011;920;48.944;9.148;2023-04-03T03:52:55;2.80;;;2.20;;
1839;SDS011;920;48.944;9.148;2023-04-03T03:55:23;3.27;;;2.00;;
1839;SDS011;920;48.944;9.148;2023-04-03T03:57:52;2.73;;;2.27;;
1839;SDS011;920;48.944;9.148;2023-04-03T04:00:20;4.63;;;2.47;;
1839;SDS011;920;48.944;9.148;2023-04-03T04:02:52;4.93;;;2.30;;
1839;SDS011;920;48.944;9.148;2023-04-03T04:05:21;3.37;;;2.00;;
1839;SDS011;920;48.944;9.148;2023-04-03T04:07:49;3.20;;;2.30;;
1839;SDS011;920;48.944;9.148;2023-04-03T04:10:16;4.63;;;2.53;;
1839;SDS011;920;48.944;9.148;2023-04-03T04:12:44;3.10;;;2.20;;
1839;SDS011;920;48.944;9.148;2023-04-03T04:15:11;4.40;;;2.10;;
1839;SDS011;920;48.944;9.148;2023-04-03T04:17:38;3.13;;;2.10;;
1839;SDS011;920;48.944;9.148;2023-04-03T04:20:10;3.70;;;2.27;;
1839;SDS011;920;48.944;9.148;2023-04-03T04:22:38;2.73;;;2.07;;
1839;SDS011;920;48.944;9.148;2023-04-03T04:25:07;2.50;;;1.93;;
1839;SDS011;920;48.944;9.148;2023-04-03T04:27:35;2.50;;;2.10;;
1839;SDS011;920;48.944;9.148;2023-04-03T04:30:03;2.73;;;1.97;;
1839;SDS011;920;48.944;9.148;2023-04-03T04:32:31;3.33;;;1.90;;
1839;SDS011;920;48.944;9.148;2023-04-03T04:34:58;3.83;;;2.03;;
1839;SDS011;920;48.944;9.148;2023-04-03T04:37:26;3.70;;;2.27;;
1839;SDS011;920;48.944;9.148;2023-04-03T04:39:58;2.80;;;2.33;;
1839;SDS011;920;48.944;9.148;2023-04-03T04:42:26;3.00;;;2.07;;
1839;SDS011;920;48.944;9.148;2023-04-03T04:44:53;4.73;;;1.90;;
1839;SDS011;920;48.944;9.148;2023-04-03T04:47:20;5.20;;;2.10;;
1839;SDS011;920;48.944;9.148;2023-04-03T04:49:48;2.97;;;2.57;;
1839;SDS011;920;48.944;9.148;2023-04-03T04:52:14;3.20;;;2.27;;
1839;SDS011;920;48.944;9.148;2023-04-03T04:54:41;3.93;;;2.30;;
1839;SDS011;920;48.944;9.148;2023-04-03T04:57:08;3.30;;;2.30;;
1839;SDS011;920;48.944;9.148;2023-04-03T04:59:40;5.40;;;2.33;;
1839;SDS011;920;48.944;9.148;2023-04-03T05:02:07;3.90;;;2.40;;
1839;SDS011;920;48.944;9.148;2023-04-03T05:04:35;2.97;;;2.13;;
1839;SDS011;920;48.944;9.148;2023-04-03T05:07:11;4.17;;;2.27;;
1839;SDS011;920;48.944;9.148;2023-04-03T05:09:37;3.27;;;2.00;;
1839;SDS011;920;48.944;9.148;2023-04-03T05:12:07;3.10;;;1.93;;
1839;SDS011;920;48.944;9.148;2023-04-03T05:14:41;5.33;;;2.10;;
1839;SDS011;920;48.944;9.148;2023-04-03T05:17:09;2.90;;;2.20;;
1839;SDS011;920;48.944;9.148;2023-04-03T05:19:39;2.77;;;2.10;;
1839;SDS011;920;48.944;9.148;2023-04-03T05:22:08;3.23;;;2.30;;
1839;SDS011;920;48.944;9.148;2023-04-03T05:24:35;3.80;;;2.30;;
1839;SDS011;920;48.944;9.148;2023-04-03T05:27:03;3.47;;;2.20;;
1839;SDS011;920;48.944;9.148;2023-04-03T05:29:32;4.40;;;2.30;;
1839;SDS011;920;48.944;9.148;2023-04-03T05:32:02;3.30;;;2.10;;
1839;SDS011;920;48.944;9.148;2023-04-03T05:34:29;2.10;;;1.80;;
1839;SDS011;920;48.944;9.148;2023-04-03T05:36:56;2.60;;;1.87;;
1839;SDS011;920;48.944;9.148;2023-04-03T05:39:24;3.23;;;2.10;;
1839;SDS011;920;48.944;9.148;2023-04-03T05:41:51;3.03;;;2.20;;
1839;SDS011;920;48.944;9.148;2023-04-03T05:44:18;3.03;;;2.07;;
1839;SDS011;920;48.944;9.148;2023-04-03T05:46:46;2.63;;;1.90;;
1839;SDS011;920;48.944;9.148;2023-04-03T05:49:15;2.90;;;1.90;;
1839;SDS011;920;48.944;9.148;2023-04-03T05:51:41;4.20;;;2.37;;
1839;SDS011;920;48.944;9.148;2023-04-03T05:54:16;2.87;;;1.93;;
1839;SDS011;920;48.944;9.148;2023-04-03T05:56:44;3.20;;;2.30;;
1839;SDS011;920;48.944;9.148;2023-04-03T05:59:11;3.33;;;2.40;;
1839;SDS011;920;48.944;9.148;2023-04-03T06:01:38;5.13;;;2.47;;
1839;SDS011;920;48.944;9.148;2023-04-03T06:04:05;2.87;;;2.10;;
1839;SDS011;920;48.944;9.148;2023-04-03T06:06:45;3.13;;;1.93;;
1839;SDS011;920;48.944;9.148;2023-04-03T06:09:13;2.80;;;2.10;;
1839;SDS011;920;48.944;9.148;2023-04-03T06:11:41;4.53;;;2.03;;
1839;SDS011;920;48.944;9.148;2023-04-03T06:14:08;2.73;;;2.07;;
1839;SDS011;920;48.944;9.148;2023-04-03T06:16:35;3.67;;;2.10;;
1839;SDS011;920;48.944;9.148;2023-04-03T06:19:02;3.37;;;2.20;;
1839;SDS011;920;48.944;9.148;2023-04-03T06:21:29;4.37;;;2.30;;
1839;SDS011;920;48.944;9.148;2023-04-03T06:23:57;3.87;;;2.20;;
1839;SDS011;920;48.944;9.148;2023-04-03T06:26:24;4.23;;;2.43;;
1839;SDS011;920;48.944;9.148;2023-04-03T06:28:52;4.47;;;2.50;;
1839;SDS011;920;48.944;9.148;2023-04-03T06:31:19;2.97;;;2.30;;
1839;SDS011;920;48.944;9.148;2023-04-03T06:33:45;2.77;;;2.17;;
1839;SDS011;920;48.944;9.148;2023-04-03T06:36:12;6.33;;;2.63;;
1839;SDS011;920;48.944;9.148;2023-04-03T06:38:44;3.37;;;2.60;;
1839;SDS011;920;48.944;9.148;2023-04-03T06:41:13;4.07;;;2.70;;
1839;SDS011;920;48.944;9.148;2023-04-03T06:43:41;3.23;;;2.20;;
1839;SDS011;920;48.944;9.148;2023-04-03T06:46:10;2.80;;;2.50;;
1839;SDS011;920;48.944;9.148;2023-04-03T06:48:40;4.00;;;2.90;;
1839;SDS011;920;48.944;9.148;2023-04-03T06:51:07;3.30;;;2.50;;
1839;SDS011;920;48.944;9.148;2023-04-03T06:53:37;3.27;;;2.57;;
1839;SDS011;920;48.944;9.148;2023-04-03T06:56:04;5.10;;;3.23;;
1839;SDS011;920;48.944;9.148;2023-04-03T06:58:32;4.47;;;2.90;;
1839;SDS011;920;48.944;9.148;2023-04-03T07:00:59;3.83;;;2.50;;
1839;SDS011;920;48.944;9.148;2023-04-03T07:03:26;3.13;;;2.70;;
1839;SDS011;920;48.944;9.148;2023-04-03T07:05:53;3.53;;;2.77;;
1839;SDS011;920;48.944;9.148;2023-04-03T07:08:20;3.10;;;2.40;;
1839;SDS011;920;48.944;9.148;2023-04-03T07:10:48;5.97;;;2.60;;
1839;SDS011;920;48.944;9.148;2023-04-03T07:13:15;3.67;;;2.43;;
1839;SDS011;920;48.944;9.148;2023-04-03T07:15:43;4.17;;;2.60;;
1839;SDS011;920;48.944;9.148;2023-04-03T07:18:10;3.40;;;2.60;;
1839;SDS011;920;48.944;9.148;2023-04-03T07:20:38;3.40;;;2.27;;
1839;SDS011;920;48.944;9.148;2023-04-03T07:23:05;3.20;;;2.70;;
1839;SDS011;920;48.944;9.148;2023-04-03T07:25:32;3.67;;;2.60;;
1839;SDS011;920;48.944;9.148;2023-04-03T07:28:00;3.93;;;3.00;;
1839;SDS011;920;48.944;9.148;2023-04-03T07:30:27;4.77;;;2.90;;
1839;SDS011;920;48.944;9.148;2023-04-03T07:32:55;3.50;;;3.03;;
1839;SDS011;920;48.944;9.148;2023-04-03T07:35:21;5.63;;;2.90;;
1839;SDS011;920;48.944;9.148;2023-04-03T07:37:48;3.90;;;2.80;;
1839;SDS011;920;48.944;9.148;2023-04-03T07:40:15;6.00;;;3.63;;
1839;SDS011;920;48.944;9.148;2023-04-03T07:42:42;5.10;;;3.20;;
1839;SDS011;920;48.944;9.148;2023-04-03T07:45:09;4.50;;;2.90;;
1839;SDS011;920;48.944;9.148;2023-04-03T07:47:36;4.93;;;2.90;;
1839;SDS011;920;48.944;9.148;2023-04-03T07:50:05;4.60;;;2.73;;
1839;SDS011;920;48.944;9.148;2023-04-03T07:52:32;5.43;;;3.30;;
1839;SDS011;920;48.944;9.148;2023-04-03T07:54:59;6.63;;;3.47;;
1839;SDS011;920;48.944;9.148;2023-04-03T07:57:26;6.77;;;4.00;;
1839;SDS011;920;48.944;9.148;2023-04-03T07:59:53;3.93;;;2.73;;
1839;SDS011;920;48.944;9.148;2023-04-03T08:02:19;4.40;;;3.50;;
1839;SDS011;920;48.944;9.148;2023-04-03T08:04:46;5.43;;;3.73;;
1839;SDS011;920;48.944;9.148;2023-04-03T08:07:14;4.43;;;3.10;;
1839;SDS011;920;48.944;9.148;2023-04-03T08:09:41;7.03;;;3.70;;
1839;SDS011;920;48.944;9.148;2023-04-03T08:12:08;5.80;;;3.30;;
1839;SDS011;920;48.944;9.148;2023-04-03T08:14:36;4.20;;;2.90;;
1839;SDS011;920;48.944;9.148;2023-04-03T08:17:03;4.33;;;2.83;;
1839;SDS011;920;48.944;9.148;2023-04-03T08:19:30;4.40;;;2.77;;
1839;SDS011;920;48.944;9.148;2023-04-03T08:21:57;6.57;;;3.00;;
1839;SDS011;920;48.944;9.148;2023-04-03T08:24:26;4.37;;;2.77;;
1839;SDS011;920;48.944;9.148;2023-04-03T08:26:53;3.40;;;2.47;;
1839;SDS011;920;48.944;9.148;2023-04-03T08:29:20;5.53;;;3.13;;
1839;SDS011;920;48.944;9.148;2023-04-03T08:31:47;3.57;;;2.50;;
1839;SDS011;920;48.944;9.148;2023-04-03T08:34:14;3.17;;;2.60;;
1839;SDS011;920;48.944;9.148;2023-04-03T08:36:41;5.23;;;2.97;;
1839;SDS011;920;48.944;9.148;2023-04-03T08:39:08;4.60;;;2.60;;
1839;SDS011;920;48.944;9.148;2023-04-03T08:41:37;3.03;;;2.73;;
1839;SDS011;920;48.944;9.148;2023-04-03T08:44:14;5.60;;;3.00;;
1839;SDS011;920;48.944;9.148;2023-04-03T08:46:47;7.37;;;2.97;;
1839;SDS011;920;48.944;9.148;2023-04-03T08:49:22;3.53;;;2.60;;
1839;SDS011;920;48.944;9.148;2023-04-03T08:51:52;6.03;;;2.80;;
1839;SDS011;920;48.944;9.148;2023-04-03T08:54:22;4.10;;;3.20;;
1839;SDS011;920;48.944;9.148;2023-04-03T08:56:53;5.13;;;2.70;;
1839;SDS011;920;48.944;9.148;2023-04-03T08:59:24;3.67;;;2.47;;
1839;SDS011;920;48.944;9.148;2023-04-03T09:01:53;3.30;;;2.40;;
1839;SDS011;920;48.944;9.148;2023-04-03T09:04:20;5.10;;;3.17;;
1839;SDS011;920;48.944;9.148;2023-04-03T09:06:49;3.50;;;2.63;;
1839;SDS011;920;48.944;9.148;2023-04-03T09:09:23;3.13;;;2.43;;
1839;SDS011;920;48.944;9.148;2023-04-03T09:12:00;3.50;;;2.37;;
1839;SDS011;920;48.944;9.148;2023-04-03T09:14:36;4.17;;;2.53;;
1839;SDS011;920;48.944;9.148;2023-04-03T09:17:08;3.00;;;2.13;;
1839;SDS011;920;48.944;9.148;2023-04-03T09:19:39;3.17;;;2.27;;
1839;SDS011;920;48.944;9.148;2023-04-03T09:22:11;3.60;;;2.50;;
1839;SDS011;920;48.944;9.148;2023-04-03T09:24:42;5.00;;;3.00;;
1839;SDS011;920;48.944;9.148;2023-04-03T09:27:11;3.87;;;2.50;;
1839;SDS011;920;48.944;9.148;2023-04-03T09:29:39;4.40;;;2.00;;
1839;SDS011;920;48.944;9.148;2023-04-03T09:32:18;6.00;;;3.00;;
1839;SDS011;920;48.944;9.148;2023-04-03T09:34:48;3.73;;;2.40;;
1839;SDS011;920;48.944;9.148;2023-04-03T09:37:34;3.40;;;2.33;;
1839;SDS011;920;48.944;9.148;2023-04-03T09:40:12;5.07;;;2.40;;
1839;SDS011;920;48.944;9.148;2023-04-03T09:43:00;4.00;;;2.37;;
1839;SDS011;920;48.944;9.148;2023-04-03T09:45:28;3.83;;;2.50;;
1839;SDS011;920;48.944;9.148;2023-04-03T09:48:06;3.60;;;2.50;;
1839;SDS011;920;48.944;9.148;2023-04-03T09:50:35;4.20;;;2.67;;
1839;SDS011;920;48.944;9.148;2023-04-03T09:53:05;2.70;;;2.30;;
1839;SDS011;920;48.944;9.148;2023-04-03T09:55:41;3.17;;;2.40;;
1839;SDS011;920;48.944;9.148;2023-04-03T09:58:22;3.57;;;2.47;;
1839;SDS011;920;48.944;9.148;2023-04-03T10:00:53;4.40;;;2.53;;
1839;SDS011;920;48.944;9.148;2023-04-03T10:03:23;3.80;;;2.30;;
1839;SDS011;920;48.944;9.148;2023-04-03T10:05:51;2.80;;;2.50;;
1839;SDS011;920;48.944;9.148;2023-04-03T10:08:21;5.00;;;2.37;;
1839;SDS011;920;48.944;9.148;2023-04-03T10:13:58;5.30;;;2.60;;
1839;SDS011;920;48.944;9.148;2023-04-03T10:16:31;4.00;;;2.53;;
1839;SDS011;920;48.944;9.148;2023-04-03T10:19:04;3.63;;;2.17;;
1839;SDS011;920;48.944;9.148;2023-04-03T10:21:40;3.00;;;2.33;;
1839;SDS011;920;48.944;9.148;2023-04-03T10:24:11;3.40;;;2.50;;
1839;SDS011;920;48.944;9.148;2023-04-03T10:26:45;3.83;;;2.33;;
1839;SDS011;920;48.944;9.148;2023-04-03T10:29:23;4.63;;;2.57;;
1839;SDS011;920;48.944;9.148;2023-04-03T10:31:59;2.63;;;2.30;;
1839;SDS011;920;48.944;9.148;2023-04-03T10:34:35;3.60;;;2.37;;
1839;SDS011;920;48.944;9.148;2023-04-03T10:37:05;3.53;;;2.80;;
1839;SDS011;920;48.944;9.148;2023-04-03T10:39:39;3.43;;;2.47;;
1839;SDS011;920;48.944;9.148;2023-04-03T10:42:13;4.00;;;2.60;;
1839;SDS011;920;48.944;9.148;2023-04-03T10:44:49;3.40;;;2.73;;
1839;SDS011;920;48.944;9.148;2023-04-03T10:47:27;3.90;;;2.20;;
1839;SDS011;920;48.944;9.148;2023-04-03T10:50:00;7.43;;;2.70;;
1839;SDS011;920;48.944;9.148;2023-04-03T10:52:30;2.90;;;2.30;;
1839;SDS011;920;48.944;9.148;2023-04-03T10:55:02;3.23;;;2.20;;
1839;SDS011;920;48.944;9.148;2023-04-03T10:57:36;3.37;;;2.40;;
1839;SDS011;920;48.944;9.148;2023-04-03T11:00:13;3.47;;;2.50;;
1839;SDS011;920;48.944;9.148;2023-04-03T11:02:45;4.03;;;2.63;;
1839;SDS011;920;48.944;9.148;2023-04-03T11:05:15;3.10;;;2.20;;
1839;SDS011;920;48.944;9.148;2023-04-03T11:07:45;3.87;;;2.57;;
1839;SDS011;920;48.944;9.148;2023-04-03T11:10:18;4.10;;;2.80;;
1839;SDS011;920;48.944;9.148;2023-04-03T11:12:49;3.27;;;2.40;;
1839;SDS011;920;48.944;9.148;2023-04-03T11:15:20;2.80;;;1.93;;
1839;SDS011;920;48.944;9.148;2023-04-03T11:17:50;3.13;;;2.20;;
1839;SDS011;920;48.944;9.148;2023-04-03T11:20:21;3.50;;;1.90;;
1839;SDS011;920;48.944;9.148;2023-04-03T11:22:53;4.10;;;2.33;;
1839;SDS011;920;48.944;9.148;2023-04-03T11:25:25;2.80;;;2.17;;
1839;SDS011;920;48.944;9.148;2023-04-03T11:27:54;2.87;;;2.30;;
1839;SDS011;920;48.944;9.148;2023-04-03T11:30:24;2.50;;;1.70;;
1839;SDS011;920;48.944;9.148;2023-04-03T11:33:01;3.63;;;2.17;;
1839;SDS011;920;48.944;9.148;2023-04-03T11:35:32;3.30;;;2.17;;
1839;SDS011;920;48.944;9.148;2023-04-03T11:37:59;4.20;;;1.87;;
1839;SDS011;920;48.944;9.148;2023-04-03T11:40:28;3.10;;;1.83;;
1839;SDS011;920;48.944;9.148;2023-04-03T11:43:02;3.50;;;2.60;;
1839;SDS011;920;48.944;9.148;2023-04-03T11:45:37;4.23;;;2.10;;
1839;SDS011;920;48.944;9.148;2023-04-03T12:12:38;3.40;;;1.80;;
1839;SDS011;920;48.944;9.148;2023-04-03T12:15:23;3.77;;;1.93;;
1839;SDS011;920;48.944;9.148;2023-04-03T12:17:53;2.73;;;1.67;;
1839;SDS011;920;48.944;9.148;2023-04-03T12:23:25;4.47;;;2.20;;
1839;SDS011;920;48.944;9.148;2023-04-03T12:25:58;3.90;;;2.30;;
1839;SDS011;920;48.944;9.148;2023-04-03T12:28:35;4.10;;;2.37;;
1839;SDS011;920;48.944;9.148;2023-04-03T12:31:04;5.67;;;2.50;;
1839;SDS011;920;48.944;9.148;2023-04-03T12:33:36;3.20;;;2.20;;
1839;SDS011;920;48.944;9.148;2023-04-03T12:36:08;2.67;;;2.13;;
1839;SDS011;920;48.944;9.148;2023-04-03T12:41:36;1.90;;;1.50;;
1839;SDS011;920;48.944;9.148;2023-04-03T12:44:18;2.80;;;2.00;;
1839;SDS011;920;48.944;9.148;2023-04-03T12:46:51;3.63;;;2.30;;
1839;SDS011;920;48.944;9.148;2023-04-03T12:49:30;3.20;;;2.00;;
1839;SDS011;920;48.944;9.148;2023-04-03T12:52:00;2.90;;;1.90;;
1839;SDS011;920;48.944;9.148;2023-04-03T12:54:31;3.37;;;1.97;;
1839;SDS011;920;48.944;9.148;2023-04-03T12:57:09;4.40;;;1.70;;
1839;SDS011;920;48.944;9.148;2023-04-03T12:59:37;2.93;;;1.70;;
1839;SDS011;920;48.944;9.148;2023-04-03T13:02:08;3.30;;;1.93;;
1839;SDS011;920;48.944;9.148;2023-04-03T13:04:49;2.83;;;1.90;;
1839;SDS011;920;48.944;9.148;2023-04-03T13:07:21;2.67;;;1.87;;
1839;SDS011;920;48.944;9.148;2023-04-03T13:10:01;2.63;;;1.90;;
1839;SDS011;920;48.944;9.148;2023-04-03T13:12:30;2.53;;;1.73;;
1839;SDS011;920;48.944;9.148;2023-04-03T13:14:57;2.90;;;1.90;;
1839;SDS011;920;48.944;9.148;2023-04-03T13:17:26;3.87;;;1.90;;
1839;SDS011;920;48.944;9.148;2023-04-03T13:19:55;3.03;;;1.87;;
1839;SDS011;920;48.944;9.148;2023-04-03T13:22:25;3.03;;;1.70;;
1839;SDS011;920;48.944;9.148;2023-04-03T13:24:54;2.07;;;1.50;;
1839;SDS011;920;48.944;9.148;2023-04-03T13:27:21;3.13;;;1.80;;
1839;SDS011;920;48.944;9.148;2023-04-03T13:29:49;2.53;;;1.80;;
1839;SDS011;920;48.944;9.148;2023-04-03T13:32:22;2.83;;;2.00;;
1839;SDS011;920;48.944;9.148;2023-04-03T13:34:50;3.30;;;1.77;;
1839;SDS011;920;48.944;9.148;2023-04-03T13:37:22;3.77;;;2.00;;
1839;SDS011;920;48.944;9.148;2023-04-03T13:39:57;2.67;;;1.83;;
1839;SDS011;920;48.944;9.148;2023-04-03T13:42:29;2.60;;;2.00;;
1839;SDS011;920;48.944;9.148;2023-04-03T13:47:45;5.30;;;2.10;;
1839;SDS011;920;48.944;9.148;2023-04-03T13:50:14;3.27;;;2.10;;
1839;SDS011;920;48.944;9.148;2023-04-03T13:52:46;2.77;;;2.03;;
1839;SDS011;920;48.944;9.148;2023-04-03T13:55:21;2.93;;;2.20;;
1839;SDS011;920;48.944;9.148;2023-04-03T13:57:53;3.03;;;2.30;;
1839;SDS011;920;48.944;9.148;2023-04-03T14:00:29;2.40;;;1.83;;
1839;SDS011;920;48.944;9.148;2023-04-03T14:02:59;2.30;;;1.90;;
1839;SDS011;920;48.944;9.148;2023-04-03T14:05:26;3.80;;;2.10;;
1839;SDS011;920;48.944;9.148;2023-04-03T14:07:54;3.13;;;2.03;;
1839;SDS011;920;48.944;9.148;2023-04-03T14:10:22;3.87;;;2.47;;
1839;SDS011;920;48.944;9.148;2023-04-03T14:12:48;3.97;;;2.07;;
1839;SDS011;920;48.944;9.148;2023-04-03T14:15:17;2.30;;;1.80;;
1839;SDS011;920;48.944;9.148;2023-04-03T14:17:45;3.80;;;2.07;;
1839;SDS011;920;48.944;9.148;2023-04-03T14:20:14;3.40;;;1.93;;
1839;SDS011;920;48.944;9.148;2023-04-03T14:22:42;2.80;;;2.20;;
1839;SDS011;920;48.944;9.148;2023-04-03T14:25:10;4.40;;;2.60;;
1839;SDS011;920;48.944;9.148;2023-04-03T14:27:38;3.67;;;2.00;;
1839;SDS011;920;48.944;9.148;2023-04-03T14:30:09;3.00;;;2.20;;
1839;SDS011;920;48.944;9.148;2023-04-03T14:32:40;3.93;;;2.00;;
1839;SDS011;920;48.944;9.148;2023-04-03T14:35:07;5.73;;;2.30;;
1839;SDS011;920;48.944;9.148;2023-04-03T14:37:34;3.40;;;2.20;;
1839;SDS011;920;48.944;9.148;2023-04-03T14:40:02;3.50;;;2.23;;
1839;SDS011;920;48.944;9.148;2023-04-03T14:42:32;3.57;;;2.33;;
1839;SDS011;920;48.944;9.148;2023-04-03T14:45:00;2.50;;;2.10;;
1839;SDS011;920;48.944;9.148;2023-04-03T14:47:28;4.27;;;2.27;;
1839;SDS011;920;48.944;9.148;2023-04-03T14:49:56;3.23;;;2.20;;
1839;SDS011;920;48.944;9.148;2023-04-03T14:52:23;3.10;;;1.63;;
1839;SDS011;920;48.944;9.148;2023-04-03T14:54:52;3.40;;;2.07;;
1839;SDS011;920;48.944;9.148;2023-04-03T14:57:19;3.23;;;1.80;;
1839;SDS011;920;48.944;9.148;2023-04-03T14:59:50;2.90;;;2.03;;
1839;SDS011;920;48.944;9.148;2023-04-03T15:05:03;2.60;;;1.80;;
1839;SDS011;920;48.944;9.148;2023-04-03T15:07:33;2.93;;;1.80;;
1839;SDS011;920;48.944;9.148;2023-04-03T15:10:02;3.37;;;2.13;;
1839;SDS011;920;48.944;9.148;2023-04-03T15:12:32;3.50;;;2.10;;
1839;SDS011;920;48.944;9.148;2023-04-03T15:15:00;11.60;;;2.60;;
1839;SDS011;920;48.944;9.148;2023-04-03T15:17:27;2.67;;;2.03;;
1839;SDS011;920;48.944;9.148;2023-04-03T15:19:54;3.40;;;2.07;;
1839;SDS011;920;48.944;9.148;2023-04-03T15:22:21;3.50;;;2.13;;
1839;SDS011;920;48.944;9.148;2023-04-03T15:24:47;3.17;;;2.03;;
1839;SDS011;920;48.944;9.148;2023-04-03T15:27:14;2.50;;;2.07;;
1839;SDS011;920;48.944;9.148;2023-04-03T15:29:42;2.90;;;2.37;;
1839;SDS011;920;48.944;9.148;2023-04-03T15:32:11;4.00;;;2.10;;
1839;SDS011;920;48.944;9.148;2023-04-03T15:34:38;3.23;;;1.97;;
1839;SDS011;920;48.944;9.148;2023-04-03T15:37:05;4.00;;;2.10;;
1839;SDS011;920;48.944;9.148;2023-04-03T15:39:32;2.10;;;1.73;;
1839;SDS011;920;48.944;9.148;2023-04-03T15:41:59;3.47;;;1.90;;
1839;SDS011;920;48.944;9.148;2023-04-03T15:44:31;3.27;;;2.23;;
1839;SDS011;920;48.944;9.148;2023-04-03T15:46:58;2.70;;;1.93;;
1839;SDS011;920;48.944;9.148;2023-04-03T15:49:27;5.30;;;1.83;;
1839;SDS011;920;48.944;9.148;2023-04-03T15:51:54;3.10;;;1.90;;
1839;SDS011;920;48.944;9.148;2023-04-03T15:54:21;2.30;;;1.87;;
1839;SDS011;920;48.944;9.148;2023-04-03T15:56:49;3.60;;;2.13;;
1839;SDS011;920;48.944;9.148;2023-04-03T15:59:16;2.57;;;1.83;;
1839;SDS011;920;48.944;9.148;2023-04-03T16:01:43;2.50;;;2.00;;
1839;SDS011;920;48.944;9.148;2023-04-03T16:04:10;2.77;;;1.90;;
1839;SDS011;920;48.944;9.148;2023-04-03T16:06:38;2.40;;;1.90;;
1839;SDS011;920;48.944;9.148;2023-04-03T16:09:05;2.73;;;1.77;;
1839;SDS011;920;48.944;9.148;2023-04-03T16:11:32;2.87;;;1.80;;
1839;SDS011;920;48.944;9.148;2023-04-03T16:14:00;3.40;;;1.83;;
1839;SDS011;920;48.944;9.148;2023-04-03T16:16:27;3.33;;;2.37;;
1839;SDS011;920;48.944;9.148;2023-04-03T16:18:54;2.93;;;1.73;;
1839;SDS011;920;48.944;9.148;2023-04-03T16:21:21;3.30;;;2.43;;
1839;SDS011;920;48.944;9.148;2023-04-03T16:23:49;2.80;;;1.90;;